Weather at Sangster International Airport

Public forecast

Using degrees Celsius for public forecast. Weather courtesy of forecast.io.

Current aviation weather report (METAR) for Sangster International Airport

Retrieved 2021/10/16 16:00 UTC (37 minutes ago):

MKJS 161600Z 05010KT 9999 FEW022 30/25 Q1013

Aviation forecast (TAF) for Sangster International Airport

Retrieved 2021/10/16 12:06 UTC (5 hours ago):

TAF MKJS 161115Z 1612/1712 09004KT 9999 FEW022 BECMG 1615/1617 05014KT TEMPO 1618/1623 TSRA BKN020CB BECMG 1702/1704 14004KT